createdAt,value
2022-09-09T00:02:24.889Z,51422.38
2022-09-09T00:05:23.979Z,51434.31
2022-09-09T00:07:54.650Z,51450.22
2022-09-09T00:10:43.323Z,51440.28
2022-09-09T00:13:20.736Z,51432.31
2022-09-09T00:16:17.419Z,51420.41
2022-09-09T00:19:08.611Z,51414.44
2022-09-09T00:21:39.884Z,51428.34
2022-09-09T00:24:39.884Z,51416.41
2022-09-09T00:27:18.975Z,51448.22
2022-09-09T00:29:58.325Z,51416.41
2022-09-09T00:32:31.025Z,51420.41
2022-09-09T00:35:06.330Z,51450.22
2022-09-09T00:37:36.183Z,51444.25
2022-09-09T00:40:22.620Z,51434.31
2022-09-09T00:43:08.428Z,51416.41
2022-09-09T00:45:57.458Z,51448.22
2022-09-09T00:48:56.187Z,51438.28
2022-09-09T00:52:09.536Z,51408.47
2022-09-09T00:55:01.677Z,51430.34
2022-09-09T00:57:33.725Z,51410.44
2022-09-09T01:00:22.583Z,51440.28
2022-09-09T01:03:28.307Z,51414.44
2022-09-09T01:06:17.925Z,51404.50
2022-09-09T01:09:22.154Z,51416.41
2022-09-09T01:12:24.568Z,51410.44
2022-09-09T01:15:14.125Z,51424.38
2022-09-09T01:18:07.680Z,51424.38
2022-09-09T01:21:05.229Z,51440.28
2022-09-09T01:24:05.342Z,51440.28
2022-09-09T01:26:44.392Z,51414.44
2022-09-09T01:29:24.527Z,51416.41
2022-09-09T01:32:02.350Z,51402.50
2022-09-09T01:34:38.813Z,51428.34
2022-09-09T01:37:11.805Z,51420.41
2022-09-09T01:39:43.679Z,51434.31
2022-09-09T01:42:16.458Z,51460.16
2022-09-09T01:44:44.125Z,51434.31
2022-09-09T01:47:11.673Z,51428.34
2022-09-09T01:49:56.248Z,51458.16
2022-09-09T01:52:27.101Z,51392.56
2022-09-09T01:54:54.223Z,51505.88
2022-09-09T01:57:32.517Z,51436.28
2022-09-09T02:00:12.577Z,51452.19
2022-09-09T02:03:01.072Z,51440.28
2022-09-09T02:05:46.892Z,51392.56
2022-09-09T02:08:36.332Z,51400.50
2022-09-09T02:11:14.176Z,51402.50
2022-09-09T02:13:49.513Z,51420.41
2022-09-09T02:16:24.309Z,51404.50
2022-09-09T02:19:22.313Z,51426.34
2022-09-09T02:22:02.133Z,51420.41
2022-09-09T02:24:34.659Z,51416.41
2022-09-09T02:27:14.043Z,51414.44
2022-09-09T02:29:43.909Z,51440.28
2022-09-09T02:32:25.502Z,51424.38
2022-09-09T02:35:00.401Z,51430.34
2022-09-09T02:37:39.766Z,51436.28
2022-09-09T02:40:11.770Z,51416.41
2022-09-09T02:42:49.595Z,51444.25
2022-09-09T02:45:26.033Z,51414.44
2022-09-09T02:48:11.475Z,51418.41
2022-09-09T02:51:11.479Z,51416.41
2022-09-09T02:53:57.195Z,51396.53
2022-09-09T02:56:29.622Z,51420.41
2022-09-09T02:58:58.218Z,51428.34
2022-09-09T03:01:26.607Z,51410.44
2022-09-09T03:03:53.748Z,51414.44
2022-09-09T03:06:21.014Z,51440.28
2022-09-09T03:08:56.098Z,51408.47
2022-09-09T03:11:26.302Z,51416.41
2022-09-09T03:13:53.382Z,51394.53
2022-09-09T03:16:22.578Z,51396.53
2022-09-09T03:18:52.554Z,51412.44
2022-09-09T03:21:20.603Z,51404.50
2022-09-09T03:23:47.858Z,51412.44
2022-09-09T03:26:18.907Z,51404.50
2022-09-09T03:28:47.912Z,51404.50
2022-09-09T03:31:19.250Z,51416.41
2022-09-09T03:33:46.791Z,51400.50
2022-09-09T03:36:16.315Z,51400.50
2022-09-09T03:38:43.704Z,51414.44
2022-09-09T03:41:11.425Z,51416.41
2022-09-09T03:43:39.669Z,51414.44
2022-09-09T03:46:06.897Z,51444.25
2022-09-09T03:48:34.309Z,51410.44
2022-09-09T03:51:02.403Z,51404.50
2022-09-09T03:53:32.827Z,51400.50
2022-09-09T03:56:03.277Z,51430.34
2022-09-09T03:58:32.027Z,51402.50
2022-09-09T04:01:11.801Z,51396.53
2022-09-09T04:03:40.471Z,51430.34
2022-09-09T04:06:10.621Z,51400.50
2022-09-09T04:08:39.704Z,51406.47
2022-09-09T04:11:07.885Z,51408.47
2022-09-09T04:13:41.442Z,51408.47
2022-09-09T04:16:14.329Z,51446.25
2022-09-09T04:18:43.928Z,51442.25
2022-09-09T04:21:13.252Z,51400.50
2022-09-09T04:23:41.127Z,51408.47
2022-09-09T04:26:08.652Z,51408.47
2022-09-09T04:28:37.490Z,51408.47
2022-09-09T04:31:12.104Z,51408.47
2022-09-09T04:33:41.260Z,51414.44
2022-09-09T04:36:10.832Z,51386.59
2022-09-09T04:38:38.394Z,51450.22
2022-09-09T04:41:07.002Z,51398.53
2022-09-09T04:43:41.578Z,51422.38
2022-09-09T04:46:10.185Z,51400.50
2022-09-09T04:48:37.572Z,51410.44
2022-09-09T04:51:10.519Z,51436.28
2022-09-09T04:53:39.135Z,51452.19
2022-09-09T04:56:13.004Z,51416.41
2022-09-09T04:58:44.473Z,51404.50
2022-09-09T05:01:19.046Z,51400.50
2022-09-09T05:03:47.628Z,51414.44
2022-09-09T05:06:21.502Z,51386.59
2022-09-09T05:08:50.882Z,51390.56
2022-09-09T05:11:27.902Z,51408.47
2022-09-09T05:14:00.535Z,51462.16
2022-09-09T05:16:30.801Z,51442.25
2022-09-09T05:18:58.614Z,51412.44
2022-09-09T05:21:27.650Z,51394.53
2022-09-09T05:23:55.588Z,51446.25
2022-09-09T05:26:23.975Z,51436.28
2022-09-09T05:28:54.505Z,51428.34
2022-09-09T05:31:21.679Z,51408.47
2022-09-09T05:33:51.689Z,51428.34
2022-09-09T05:36:21.698Z,51424.38
2022-09-09T05:38:54.899Z,51424.38
2022-09-09T05:41:24.092Z,51448.22
2022-09-09T05:43:54.141Z,51432.31
2022-09-09T05:46:25.970Z,51448.22
2022-09-09T05:48:55.215Z,51428.34
2022-09-09T05:51:31.294Z,51446.25
2022-09-09T05:54:00.648Z,51474.06
2022-09-09T05:56:31.229Z,51432.31
2022-09-09T05:59:01.214Z,51454.19
2022-09-09T06:01:32.544Z,51418.41
2022-09-09T06:04:01.255Z,51482.03
2022-09-09T06:06:37.504Z,51476.06
2022-09-09T06:09:10.899Z,51428.34
2022-09-09T06:11:41.079Z,51466.13
2022-09-09T06:14:09.360Z,51456.19
2022-09-09T06:16:39.345Z,51450.22
2022-09-09T06:19:15.402Z,51428.34
2022-09-09T06:21:43.626Z,51450.22
2022-09-09T06:24:14.787Z,51444.25
2022-09-09T06:26:42.462Z,51432.31
2022-09-09T06:29:12.753Z,51450.22
2022-09-09T06:31:42.422Z,51472.09
2022-09-09T06:34:24.182Z,51446.25
2022-09-09T06:36:55.400Z,51474.06
2022-09-09T06:39:22.653Z,51474.06
2022-09-09T06:41:50.826Z,51464.13
2022-09-09T06:44:37.356Z,51452.19
2022-09-09T06:47:07.973Z,51478.03
2022-09-09T06:49:36.041Z,51525.75
2022-09-09T06:52:07.518Z,51476.06
2022-09-09T06:54:34.663Z,51537.69
2022-09-09T06:57:11.114Z,51545.66
2022-09-09T06:59:49.453Z,51493.94
2022-09-09T07:02:16.757Z,51452.19
2022-09-09T07:04:44.338Z,51569.50
2022-09-09T07:07:13.340Z,51509.84
2022-09-09T07:09:41.560Z,51517.81
2022-09-09T07:12:10.148Z,51515.81
2022-09-09T07:14:41.672Z,51507.88
2022-09-09T07:17:10.330Z,51525.75
2022-09-09T07:19:40.310Z,51503.91
2022-09-09T07:22:07.528Z,51543.66
2022-09-09T07:24:36.117Z,51533.72
2022-09-09T07:27:04.360Z,51551.63
2022-09-09T07:29:31.518Z,51571.50
2022-09-09T07:32:00.033Z,51567.50
2022-09-09T07:34:32.642Z,51543.66
2022-09-09T07:36:59.929Z,51551.63
2022-09-09T07:39:27.231Z,51569.50
2022-09-09T07:41:55.697Z,51579.44
2022-09-09T07:44:26.109Z,51587.41
2022-09-09T07:47:04.805Z,51571.50
2022-09-09T07:49:39.294Z,51583.41
2022-09-09T07:54:43.347Z,51645.06
2022-09-09T07:57:11.659Z,51635.13
2022-09-09T07:59:39.208Z,51660.97
2022-09-09T08:02:07.668Z,51641.09
2022-09-09T08:04:36.293Z,51660.97
2022-09-09T08:07:04.580Z,51655.00
2022-09-09T08:09:37.825Z,51674.88
2022-09-09T08:12:11.815Z,51635.13
2022-09-09T08:14:40.077Z,51627.16
2022-09-09T08:17:07.574Z,51627.16
2022-09-09T08:19:37.902Z,51623.19
2022-09-09T08:22:14.541Z,51613.25
2022-09-09T08:24:42.071Z,51631.13
2022-09-09T08:27:11.032Z,51629.16
2022-09-09T08:29:39.223Z,51599.31
2022-09-09T08:32:06.944Z,51637.09
2022-09-09T08:34:35.330Z,51623.19
2022-09-09T08:37:07.194Z,51603.31
2022-09-09T08:39:40.567Z,51603.31
2022-09-09T08:42:23.656Z,51615.22
2022-09-09T08:45:25.785Z,51639.09
2022-09-09T08:48:36.161Z,51656.97
2022-09-09T08:51:05.321Z,51674.88
2022-09-09T08:53:59.072Z,51690.78
2022-09-09T08:56:29.587Z,51674.88
2022-09-09T08:59:03.864Z,51678.84
2022-09-09T09:02:16.895Z,51649.03
2022-09-09T09:05:00.432Z,51645.06
2022-09-09T09:07:52.111Z,51658.97
2022-09-09T09:10:49.472Z,51635.13
2022-09-09T09:13:33.346Z,51645.06
2022-09-09T09:16:28.843Z,51607.28
2022-09-09T09:18:57.051Z,51591.38
2022-09-09T09:21:45.935Z,51559.56
2022-09-09T09:24:35.804Z,51559.56
2022-09-09T09:27:15.955Z,51573.47
2022-09-09T09:30:20.334Z,51561.56
2022-09-09T09:32:42.418Z,51611.25
2022-09-09T09:35:14.620Z,51639.09
2022-09-09T09:40:35.202Z,51672.91
2022-09-09T09:43:09.621Z,51726.56
2022-09-09T09:46:13.977Z,51706.69
2022-09-09T09:48:36.817Z,51720.59
2022-09-09T09:51:16.915Z,51714.66
2022-09-09T09:53:44.937Z,51736.53
2022-09-09T09:56:16.002Z,51744.47
2022-09-09T09:58:47.209Z,51756.41
2022-09-09T10:01:34.355Z,51764.34
2022-09-09T10:04:17.588Z,51754.41
2022-09-09T10:06:45.003Z,51802.13
2022-09-09T10:09:33.886Z,51774.28
2022-09-09T10:12:20.249Z,51762.38
2022-09-09T10:15:23.156Z,51732.53
2022-09-09T10:18:20.046Z,51698.75
2022-09-09T10:21:16.720Z,51653.00
2022-09-09T10:24:00.736Z,51631.13
2022-09-09T10:26:59.231Z,51635.13
2022-09-09T10:29:55.000Z,51645.06
2022-09-09T10:33:12.327Z,51674.88
2022-09-09T10:36:15.343Z,51664.94
2022-09-09T10:38:47.498Z,51653.00
2022-09-09T10:42:10.354Z,51700.72
2022-09-09T10:44:55.842Z,51678.84
2022-09-09T10:47:44.148Z,51686.81
2022-09-09T10:50:38.077Z,51714.66
2022-09-09T10:53:24.811Z,51766.34
2022-09-09T10:56:02.535Z,51756.41
2022-09-09T10:58:54.045Z,51772.31
2022-09-09T11:01:27.259Z,51762.38
2022-09-09T11:04:14.414Z,51734.53
2022-09-09T11:06:49.199Z,51730.56
2022-09-09T11:09:21.452Z,51700.72
2022-09-09T11:12:03.370Z,51702.72
2022-09-09T11:14:42.678Z,51702.72
2022-09-09T11:17:18.273Z,51710.66
2022-09-09T11:19:45.993Z,51706.69
2022-09-09T11:22:35.182Z,51722.59
2022-09-09T11:25:06.763Z,51722.59
2022-09-09T11:28:34.047Z,51722.59
2022-09-09T11:31:34.997Z,51702.72
2022-09-09T11:34:40.223Z,51696.75
2022-09-09T11:37:51.341Z,51700.72
2022-09-09T11:40:29.596Z,51688.78
2022-09-09T11:43:07.035Z,51704.69
2022-09-09T11:45:36.744Z,51684.81
2022-09-09T11:48:07.011Z,51686.81
2022-09-09T11:50:37.717Z,51700.72
2022-09-09T11:53:27.519Z,51730.56
2022-09-09T11:56:13.122Z,51863.78
2022-09-09T11:59:22.926Z,52110.34
2022-09-09T12:01:58.934Z,52482.22
2022-09-09T12:04:26.516Z,52850.16
2022-09-09T12:07:03.604Z,52772.56
2022-09-09T12:09:58.021Z,52456.34
2022-09-09T12:12:33.299Z,52211.75
2022-09-09T12:15:09.263Z,52126.25
2022-09-09T12:17:54.376Z,52030.78
2022-09-09T12:20:38.242Z,51973.13
2022-09-09T12:23:23.548Z,51931.38
2022-09-09T12:26:14.760Z,51867.75
2022-09-09T12:28:56.095Z,51875.69
2022-09-09T12:31:50.896Z,51855.81
2022-09-09T12:34:43.136Z,51925.41
2022-09-09T12:37:37.594Z,51943.31
2022-09-09T12:40:20.720Z,51957.22
2022-09-09T12:42:47.893Z,52042.72
2022-09-09T12:45:27.244Z,52177.94
2022-09-09T12:47:57.960Z,52629.38
2022-09-09T12:50:35.000Z,52967.50
2022-09-09T12:53:17.679Z,53315.59
2022-09-09T12:55:58.171Z,53635.88
2022-09-09T12:58:26.287Z,53200.22
2022-09-09T13:00:59.189Z,52852.13
2022-09-09T13:03:27.062Z,52708.94
2022-09-09T13:06:01.382Z,52374.81
2022-09-09T13:08:28.887Z,52285.34
2022-09-09T13:11:03.115Z,52183.91
2022-09-09T13:13:40.284Z,52289.31
2022-09-09T13:16:24.177Z,52191.88
2022-09-09T13:18:51.893Z,52500.09
2022-09-09T13:21:20.073Z,52585.63
2022-09-09T13:23:53.216Z,52394.72
2022-09-09T13:26:28.228Z,52321.13
2022-09-09T13:28:56.213Z,52164.03
2022-09-09T13:31:33.868Z,52132.22
2022-09-09T13:34:12.318Z,52032.78
2022-09-09T13:36:40.764Z,51959.22
2022-09-09T13:39:18.869Z,51981.09
2022-09-09T13:41:49.482Z,52056.66
2022-09-09T13:44:35.164Z,52078.53
2022-09-09T13:47:39.806Z,52080.50
2022-09-09T13:50:29.943Z,51981.09
2022-09-09T13:52:59.822Z,51921.44
2022-09-09T13:55:29.161Z,51897.56
2022-09-09T13:57:59.928Z,51889.63
2022-09-09T14:00:30.587Z,51903.53
2022-09-09T14:02:57.979Z,51891.59
2022-09-09T14:05:26.177Z,51893.59
2022-09-09T14:07:53.530Z,51913.47
2022-09-09T14:10:21.902Z,51917.47
2022-09-09T14:12:49.235Z,51929.38
2022-09-09T14:15:17.151Z,51941.31
2022-09-09T14:17:44.764Z,51913.47
2022-09-09T14:20:13.090Z,51925.41
2022-09-09T14:22:40.347Z,51907.50
2022-09-09T14:25:08.656Z,51993.00
2022-09-09T14:27:35.726Z,52022.84
2022-09-09T14:30:03.164Z,52040.75
2022-09-09T14:32:30.324Z,52008.94
2022-09-09T14:34:57.363Z,51997.00
2022-09-09T14:37:25.083Z,52044.72
2022-09-09T14:39:52.280Z,52048.69
2022-09-09T14:42:19.849Z,52098.41
2022-09-09T14:44:46.918Z,52120.28
2022-09-09T14:47:14.025Z,52261.47
2022-09-09T14:49:42.662Z,52372.84
2022-09-09T14:52:12.349Z,52470.28
2022-09-09T14:54:39.464Z,52269.41
2022-09-09T14:57:06.533Z,52020.84
2022-09-09T14:59:33.613Z,51951.25
2022-09-09T15:02:05.102Z,52152.09
2022-09-09T15:04:32.530Z,52275.38
2022-09-09T15:06:59.894Z,52315.16
2022-09-09T15:09:26.995Z,52148.13
2022-09-09T15:11:54.133Z,52028.81
2022-09-09T15:14:23.871Z,51991.03
2022-09-09T15:16:52.919Z,51993.00
2022-09-09T15:19:20.017Z,51985.06
2022-09-09T15:21:47.206Z,52086.47
2022-09-09T15:24:14.723Z,52122.28
2022-09-09T15:26:41.926Z,52454.38
2022-09-09T15:29:09.833Z,52792.47
2022-09-09T15:31:37.445Z,52689.03
2022-09-09T15:34:08.803Z,52521.97
2022-09-09T15:36:39.486Z,52426.53
2022-09-09T15:39:16.592Z,52434.47
2022-09-09T15:41:47.914Z,52404.66
2022-09-09T15:44:16.620Z,52205.78
2022-09-09T15:46:54.654Z,52102.38
2022-09-09T15:49:27.188Z,52080.50
2022-09-09T15:52:00.545Z,52054.66
2022-09-09T15:54:27.962Z,51998.97
2022-09-09T15:56:58.497Z,51955.25
2022-09-09T15:59:28.908Z,51921.44
2022-09-09T16:01:56.925Z,51911.50
2022-09-09T16:04:25.624Z,51861.78
2022-09-09T16:06:55.764Z,51851.84
2022-09-09T16:09:23.376Z,51826.00
2022-09-09T16:11:50.600Z,51804.13
2022-09-09T16:14:18.745Z,51750.44
2022-09-09T16:16:46.005Z,51776.28
2022-09-09T16:19:14.107Z,51746.47
2022-09-09T16:21:50.277Z,51748.44
2022-09-09T16:24:19.926Z,51718.63
2022-09-09T16:26:50.265Z,51750.44
2022-09-09T16:29:19.824Z,51716.63
2022-09-09T16:31:47.970Z,51722.59
2022-09-09T16:34:18.569Z,51716.63
2022-09-09T16:36:47.388Z,51730.56
2022-09-09T16:39:17.801Z,51758.38
2022-09-09T16:41:46.846Z,51708.69
2022-09-09T16:44:19.301Z,51700.72
2022-09-09T16:46:49.835Z,51730.56
2022-09-09T16:49:17.568Z,51708.69
2022-09-09T16:51:48.291Z,51724.59
2022-09-09T16:54:18.193Z,51702.72
2022-09-09T16:56:48.297Z,51702.72
2022-09-09T16:59:18.868Z,51706.69
2022-09-09T17:01:48.795Z,51686.81
2022-09-09T17:04:27.661Z,51682.84
2022-09-09T17:06:56.102Z,51639.09
2022-09-09T17:09:24.380Z,51655.00
2022-09-09T17:11:53.308Z,51625.19
2022-09-09T17:14:22.643Z,51631.13
2022-09-09T17:16:50.190Z,51607.28
2022-09-09T17:19:17.967Z,51605.28
2022-09-09T17:22:15.678Z,51595.34
2022-09-09T17:24:35.892Z,51575.47
2022-09-09T17:27:03.332Z,51619.22
2022-09-09T17:29:30.512Z,51593.38
2022-09-09T17:31:57.671Z,51595.34
2022-09-09T17:34:26.095Z,51619.22
2022-09-09T17:36:53.475Z,51575.47
2022-09-09T17:39:20.627Z,51567.50
2022-09-09T17:41:47.742Z,51543.66
2022-09-09T17:44:15.880Z,51539.69
2022-09-09T17:46:44.571Z,51527.75
2022-09-09T17:49:16.364Z,51519.81
2022-09-09T17:51:46.172Z,51519.81
2022-09-09T17:54:20.528Z,51569.50
2022-09-09T17:56:49.359Z,51519.81
2022-09-09T17:59:18.693Z,51553.59
2022-09-09T18:01:49.691Z,51587.41
2022-09-09T18:04:17.900Z,51497.94
2022-09-09T18:06:50.649Z,51503.91
2022-09-09T18:09:25.322Z,51513.84
2022-09-09T18:11:56.513Z,51495.94
2022-09-09T18:14:31.133Z,51517.81
2022-09-09T18:17:00.923Z,51557.56
2022-09-09T18:19:42.400Z,51507.88
2022-09-09T18:22:09.580Z,51507.88
2022-09-09T18:24:36.789Z,51523.78
2022-09-09T18:27:04.417Z,51493.94
2022-09-09T18:29:31.560Z,51482.03
2022-09-09T18:31:58.979Z,51501.91
2022-09-09T18:34:28.579Z,51482.03
2022-09-09T18:36:56.578Z,51523.78
2022-09-09T18:39:27.813Z,51493.94
2022-09-09T18:42:02.362Z,51495.94
2022-09-09T18:44:35.566Z,51495.94
2022-09-09T18:47:03.532Z,51478.03
2022-09-09T18:49:30.915Z,51466.13
2022-09-09T18:51:58.629Z,51482.03
2022-09-09T18:54:34.254Z,51480.03
2022-09-09T18:57:01.780Z,51476.06
2022-09-09T18:59:29.753Z,51478.03
2022-09-09T19:01:57.274Z,51466.13
2022-09-09T19:04:26.095Z,51472.09
2022-09-09T19:06:57.998Z,51486.00
2022-09-09T19:09:29.006Z,51462.16
2022-09-09T19:11:56.302Z,51470.09
2022-09-09T19:14:23.683Z,51452.19
2022-09-09T19:16:51.742Z,51454.19
2022-09-09T19:19:29.591Z,51476.06
2022-09-09T19:21:59.697Z,51464.13
2022-09-09T19:24:30.715Z,51446.25
2022-09-09T19:27:06.793Z,51466.13
2022-09-09T19:29:36.548Z,51440.28
2022-09-09T19:32:49.746Z,51418.41
2022-09-09T19:34:52.467Z,51484.00
2022-09-09T19:37:20.547Z,51474.06
2022-09-09T19:39:49.596Z,51440.28
2022-09-09T19:42:17.335Z,51442.25
2022-09-09T19:44:44.759Z,51452.19
2022-09-09T19:47:13.015Z,51430.34
2022-09-09T19:49:43.888Z,51472.09
2022-09-09T19:52:13.698Z,51420.41
2022-09-09T19:54:41.112Z,51456.19
2022-09-09T19:57:08.234Z,51430.34
2022-09-09T19:59:36.015Z,51454.19
2022-09-09T20:02:03.403Z,51446.25
2022-09-09T20:04:30.723Z,51416.41
2022-09-09T20:06:57.845Z,51456.19
2022-09-09T20:09:27.511Z,51436.28
2022-09-09T20:11:54.627Z,51458.16
2022-09-09T20:14:21.748Z,51426.34
2022-09-09T20:16:49.640Z,51440.28
2022-09-09T20:19:17.224Z,51489.97
2022-09-09T20:21:50.511Z,51456.19
2022-09-09T20:24:19.874Z,51452.19
2022-09-09T20:26:49.034Z,51418.41
2022-09-09T20:29:19.657Z,51472.09
2022-09-09T20:31:48.004Z,51452.19
2022-09-09T20:34:19.147Z,51442.25
2022-09-09T20:36:47.409Z,51442.25
2022-09-09T20:39:17.140Z,51424.38
2022-09-09T20:41:46.370Z,51489.97
2022-09-09T20:44:24.396Z,51470.09
2022-09-09T20:46:55.558Z,51444.25
2022-09-09T20:49:24.384Z,51450.22
2022-09-09T20:51:53.370Z,51428.34
2022-09-09T20:54:27.604Z,51412.44
2022-09-09T20:56:57.689Z,51440.28
2022-09-09T20:59:27.413Z,51464.13
2022-09-09T21:01:57.039Z,51454.19
2022-09-09T21:04:26.134Z,51450.22
2022-09-09T21:06:53.339Z,51456.19
2022-09-09T21:09:23.196Z,51460.16
2022-09-09T21:11:51.215Z,51454.19
2022-09-09T21:14:18.336Z,51440.28
2022-09-09T21:16:45.868Z,51454.19
2022-09-09T21:19:13.099Z,51452.19
2022-09-09T21:21:40.177Z,51458.16
2022-09-09T21:24:07.422Z,51440.28
2022-09-09T21:26:35.762Z,51448.22
2022-09-09T21:29:03.322Z,51440.28
2022-09-09T21:31:31.467Z,51430.34
2022-09-09T21:33:59.276Z,51454.19
2022-09-09T21:36:31.339Z,51444.25
2022-09-09T21:38:59.206Z,51420.41
2022-09-09T21:41:27.184Z,51507.88
2022-09-09T21:43:55.230Z,51460.16
2022-09-09T21:46:23.636Z,51444.25
2022-09-09T21:48:51.075Z,51440.28
2022-09-09T21:51:18.998Z,51468.09
2022-09-09T21:53:46.460Z,51432.31
2022-09-09T21:56:18.526Z,51400.50
2022-09-09T21:58:46.899Z,51448.22
2022-09-09T22:01:19.956Z,51482.03
2022-09-09T22:03:47.333Z,51444.25
2022-09-09T22:06:17.116Z,51416.41
2022-09-09T22:08:46.118Z,51444.25
2022-09-09T22:11:16.767Z,51412.44
2022-09-09T22:13:47.343Z,51402.50
2022-09-09T22:16:19.073Z,51430.34
2022-09-09T22:18:56.820Z,51430.34
2022-09-09T22:21:26.524Z,51416.41
2022-09-09T22:23:59.354Z,51452.19
2022-09-09T22:26:29.218Z,51428.34
2022-09-09T22:28:57.400Z,51422.38
2022-09-09T22:31:26.223Z,51444.25
2022-09-09T22:33:53.928Z,51444.25
2022-09-09T22:36:21.737Z,51448.22
2022-09-09T22:38:50.478Z,51444.25
2022-09-09T22:41:18.945Z,51440.28
2022-09-09T22:43:46.842Z,51424.38
2022-09-09T22:46:14.571Z,51442.25
2022-09-09T22:48:43.868Z,51424.38
2022-09-09T22:51:14.667Z,51464.13
2022-09-09T22:53:44.730Z,51408.47
2022-09-09T22:56:19.869Z,51398.53
2022-09-09T22:58:47.731Z,51396.53
2022-09-09T23:01:20.815Z,51422.38
2022-09-09T23:03:49.593Z,51402.50
2022-09-09T23:06:23.257Z,51408.47
2022-09-09T23:08:57.140Z,51410.44
2022-09-09T23:11:29.218Z,51400.50
2022-09-09T23:14:00.370Z,51422.38
2022-09-09T23:16:33.050Z,51432.31
2022-09-09T23:19:01.055Z,51448.22
2022-09-09T23:21:29.956Z,51402.50
2022-09-09T23:23:58.883Z,51436.28
2022-09-09T23:26:29.227Z,51416.41
2022-09-09T23:28:58.536Z,51410.44
2022-09-09T23:31:29.295Z,51394.53
2022-09-09T23:33:58.249Z,51420.41
2022-09-09T23:36:26.418Z,51386.59
2022-09-09T23:38:56.219Z,51404.50
2022-09-09T23:41:23.620Z,51412.44
2022-09-09T23:43:52.787Z,51412.44
2022-09-09T23:46:23.747Z,51384.59
2022-09-09T23:48:51.940Z,51404.50
2022-09-09T23:51:23.963Z,51420.41
2022-09-09T23:53:54.122Z,51410.44
2022-09-09T23:56:33.023Z,51396.53
2022-09-09T23:59:00.997Z,51402.50
